METAR
Diposting tanggal: 30 November 2018

Pukul : 08.00 UTC

Isi :
METAR WAGI 170800Z 00000KT 5000 -RA FEW011CB BKN011 26/25 Q1010 RETS RMK CB TO N=